Time;durP1;ratioP1;P1;durP2;ratioP2;P2;SDS_P1;SDS_P2;PMS_P1;PMS_P2;Temp;Humidity;BMP_temperature;BMP_pressure;BME280_temperature;BME280_humidity;BME280_pressure;Samples;Min_cycle;Max_cycle;Signal;HPM_P1;HPM_P2
2022/11/21 00:00:50;;;;;;;79.03;30.87;;;2.60;99.90;;;;;;5062214;28;20297;-72
2022/11/21 00:03:17;;;;;;;86.87;30.00;;;2.60;99.90;;;;;;5061097;28;20635;-72
2022/11/21 00:05:46;;;;;;;100.57;30.93;;;2.60;99.90;;;;;;5044650;28;20686;-71
2022/11/21 00:08:15;;;;;;;81.77;30.13;;;2.60;99.90;;;;;;5059685;28;20712;-73
2022/11/21 00:10:42;;;;;;;122.27;33.43;;;2.60;99.90;;;;;;5058749;28;20549;-72
2022/11/21 00:13:14;;;;;;;82.17;29.53;;;2.60;99.90;;;;;;5048479;28;20211;-72
2022/11/21 00:15:41;;;;;;;107.97;32.53;;;2.60;99.90;;;;;;5061598;28;20287;-72
2022/11/21 00:18:10;;;;;;;99.23;32.03;;;2.60;99.90;;;;;;5059477;28;20662;-72
2022/11/21 00:20:37;;;;;;;97.43;30.83;;;2.60;99.90;;;;;;5061820;28;20330;-71
2022/11/21 00:23:04;;;;;;;85.07;29.53;;;2.60;99.90;;;;;;5045725;28;20300;-72
2022/11/21 00:25:31;;;;;;;88.23;30.40;;;2.60;99.90;;;;;;5059640;28;20204;-72
2022/11/21 00:27:58;;;;;;;79.83;31.43;;;2.60;99.90;;;;;;5062811;28;20734;-70
2022/11/21 00:30:25;;;;;;;82.10;29.30;;;2.60;99.90;;;;;;5059790;28;20210;-71
2022/11/21 00:32:52;;;;;;;94.50;31.37;;;2.60;99.90;;;;;;5062401;28;20298;-71
2022/11/21 00:35:18;;;;;;;78.43;28.47;;;2.60;99.90;;;;;;5061548;28;20244;-72
2022/11/21 00:37:47;;;;;;;92.73;30.03;;;2.60;99.90;;;;;;5060567;28;20301;-71
2022/11/21 00:40:14;;;;;;;88.00;30.47;;;2.60;99.90;;;;;;5059464;28;20218;-71
2022/11/21 00:42:41;;;;;;;98.73;31.13;;;2.60;99.90;;;;;;5043545;28;20206;-71
2022/11/21 00:45:08;;;;;;;116.67;34.00;;;2.50;99.90;;;;;;5061008;28;20215;-71
2022/11/21 00:47:35;;;;;;;87.57;30.20;;;2.50;99.90;;;;;;5060399;28;20218;-71
2022/11/21 00:50:02;;;;;;;84.30;29.77;;;2.50;99.90;;;;;;5059384;28;20203;-71
2022/11/21 00:52:29;;;;;;;89.33;31.07;;;2.50;99.90;;;;;;5062070;28;20328;-71
2022/11/21 00:54:56;;;;;;;110.03;31.53;;;2.50;99.90;;;;;;5060941;28;20216;-72
2022/11/21 00:57:23;;;;;;;100.77;32.33;;;2.50;99.90;;;;;;5062224;28;20231;-71
2022/11/21 00:59:49;;;;;;;112.37;33.23;;;2.60;99.90;;;;;;5060308;28;20703;-70
2022/11/21 01:02:16;;;;;;;90.23;31.03;;;2.60;99.90;;;;;;5046900;28;20569;-71
2022/11/21 01:04:43;;;;;;;115.00;33.90;;;2.60;99.90;;;;;;5058999;28;20210;-72
2022/11/21 01:07:13;;;;;;;88.43;31.57;;;2.60;99.90;;;;;;5075379;28;20211;-72
2022/11/21 01:09:40;;;;;;;116.10;33.37;;;2.60;99.90;;;;;;5062354;28;20650;-71
2022/11/21 01:12:06;;;;;;;103.63;33.83;;;2.60;99.90;;;;;;5059673;28;20231;-71
2022/11/21 01:14:33;;;;;;;103.97;32.20;;;2.60;99.90;;;;;;5060952;28;20750;-71
2022/11/21 01:17:00;;;;;;;103.43;33.53;;;2.60;99.90;;;;;;5041048;28;20304;-71
2022/11/21 01:19:27;;;;;;;88.73;31.73;;;2.60;99.90;;;;;;5065422;28;20402;-71
2022/11/21 01:21:53;;;;;;;86.33;32.53;;;2.70;99.90;;;;;;5065407;28;20219;-71
2022/11/21 01:24:20;;;;;;;86.53;32.53;;;2.70;99.90;;;;;;5049687;28;20202;-71
2022/11/21 01:26:49;;;;;;;111.30;32.00;;;2.70;99.90;;;;;;5065389;28;20237;-72
2022/11/21 01:29:16;;;;;;;88.40;31.93;;;2.70;99.90;;;;;;5065393;28;20591;-70
2022/11/21 01:31:43;;;;;;;117.90;34.80;;;2.70;99.90;;;;;;5044981;28;20291;-71
2022/11/21 01:34:10;;;;;;;91.33;31.43;;;2.70;99.90;;;;;;5069101;28;20627;-71
2022/11/21 01:36:37;;;;;;;98.23;33.00;;;2.70;99.90;;;;;;5060347;28;20737;-71
2022/11/21 01:39:05;;;;;;;90.03;32.33;;;2.70;99.90;;;;;;5064467;28;20249;-70
2022/11/21 01:41:37;;;;;;;88.67;32.07;;;2.70;99.90;;;;;;5062733;28;20302;-71
2022/11/21 01:44:21;;;;;;;122.43;34.60;;;2.70;99.90;;;;;;5065339;28;20602;-71
2022/11/21 01:46:49;;;;;;;89.80;31.37;;;2.70;99.90;;;;;;5062429;28;20325;-71
2022/11/21 01:49:25;;;;;;;112.73;33.67;;;2.70;99.90;;;;;;5058833;28;20207;-71
2022/11/21 01:52:07;;;;;;;99.20;30.83;;;2.70;99.90;;;;;;5063102;28;20340;-70
2022/11/21 01:54:50;;;;;;;102.87;33.10;;;2.70;99.90;;;;;;5059751;28;20582;-72
2022/11/21 01:57:39;;;;;;;108.17;33.57;;;2.70;99.90;;;;;;5061049;28;20233;-71
2022/11/21 02:00:14;;;;;;;107.60;32.97;;;2.70;99.90;;;;;;5050201;28;20207;-72
2022/11/21 02:02:45;;;;;;;84.97;29.40;;;2.60;99.90;;;;;;5061048;28;20335;-71
2022/11/21 02:05:20;;;;;;;89.47;32.10;;;2.60;99.90;;;;;;5065474;28;20327;-70
2022/11/21 02:07:48;;;;;;;103.03;30.73;;;2.70;99.90;;;;;;5062277;28;20222;-71
2022/11/21 02:10:15;;;;;;;88.87;32.27;;;2.70;99.90;;;;;;5067304;28;20284;-71
2022/11/21 02:12:51;;;;;;;92.77;31.47;;;2.70;99.90;;;;;;5049410;28;20203;-72
2022/11/21 02:15:19;;;;;;;97.60;32.50;;;2.60;99.90;;;;;;5062802;28;20651;-70
2022/11/21 02:17:46;;;;;;;92.00;32.23;;;2.60;99.90;;;;;;5062597;28;20325;-72
2022/11/21 02:20:16;;;;;;;105.90;33.30;;;2.70;99.90;;;;;;5064870;28;20323;-71
2022/11/21 02:22:48;;;;;;;85.57;32.00;;;2.70;99.90;;;;;;5064178;28;20223;-72
2022/11/21 02:25:21;;;;;;;88.07;32.17;;;2.60;99.90;;;;;;5064464;28;20300;-70
2022/11/21 02:27:51;;;;;;;93.87;31.97;;;2.60;99.90;;;;;;5062496;28;20220;-70
2022/11/21 02:30:18;;;;;;;81.13;29.67;;;2.60;99.90;;;;;;5065221;28;20187;-71
2022/11/21 02:32:48;;;;;;;87.43;30.53;;;2.50;99.90;;;;;;5043499;28;20236;-72
2022/11/21 02:35:16;;;;;;;93.83;31.37;;;2.40;99.90;;;;;;5063422;28;20769;-71
2022/11/21 02:38:00;;;;;;;99.93;31.63;;;2.30;99.90;;;;;;5060961;28;20327;-71
2022/11/21 02:40:31;;;;;;;92.53;31.73;;;2.20;99.90;;;;;;5060627;28;20203;-72
2022/11/21 02:43:22;;;;;;;101.47;31.87;;;2.20;99.90;;;;;;5059417;28;20309;-71
2022/11/21 02:45:48;;;;;;;98.27;31.40;;;2.20;99.90;;;;;;5062407;28;20723;-71
2022/11/21 02:48:15;;;;;;;109.00;34.73;;;2.20;99.90;;;;;;5062375;28;20564;-71
2022/11/21 02:50:44;;;;;;;125.77;34.50;;;2.20;99.90;;;;;;5057105;28;20295;-71
2022/11/21 02:53:15;;;;;;;116.00;34.23;;;2.30;99.90;;;;;;5062781;28;20214;-71
2022/11/21 02:55:43;;;;;;;109.30;33.33;;;2.30;99.90;;;;;;5062058;28;20556;-71
2022/11/21 02:58:10;;;;;;;132.83;35.20;;;2.30;99.90;;;;;;5064189;28;20785;-71
2022/11/21 03:00:39;;;;;;;91.07;32.73;;;2.30;99.90;;;;;;5041028;28;20685;-71
2022/11/21 03:03:06;;;;;;;89.10;32.63;;;2.40;99.90;;;;;;5063941;28;20674;-72
2022/11/21 03:05:32;;;;;;;97.87;34.60;;;2.30;99.90;;;;;;5064791;28;20332;-71
2022/11/21 03:07:59;;;;;;;103.07;32.43;;;2.30;99.90;;;;;;5057891;28;20288;-71
2022/11/21 03:10:26;;;;;;;102.17;33.33;;;2.30;99.90;;;;;;5064093;28;20238;-71
2022/11/21 03:12:59;;;;;;;103.33;34.30;;;2.30;99.90;;;;;;5069578;28;20205;-71
2022/11/21 03:15:32;;;;;;;106.23;34.57;;;2.30;99.90;;;;;;5062303;28;20693;-71
2022/11/21 03:18:01;;;;;;;134.23;33.63;;;2.30;99.90;;;;;;5059316;28;20282;-71
2022/11/21 03:20:31;;;;;;;109.77;33.03;;;2.30;99.90;;;;;;5063691;28;20688;-71
2022/11/21 03:22:58;;;;;;;101.13;34.87;;;2.30;99.90;;;;;;5062052;28;20256;-71
2022/11/21 03:25:25;;;;;;;102.73;33.43;;;2.30;99.90;;;;;;5048875;28;20223;-71
2022/11/21 03:27:53;;;;;;;116.97;33.87;;;2.30;99.90;;;;;;5064883;28;20218;-70
2022/11/21 03:30:21;;;;;;;103.93;31.93;;;2.30;99.90;;;;;;5061987;28;20627;-70
2022/11/21 03:32:48;;;;;;;100.97;32.00;;;2.30;99.90;;;;;;5060685;28;20294;-72
2022/11/21 03:35:15;;;;;;;109.40;32.70;;;2.30;99.90;;;;;;5044829;28;20260;-71
2022/11/21 03:37:42;;;;;;;106.60;33.50;;;2.30;99.90;;;;;;5063231;28;20584;-71
2022/11/21 03:40:09;;;;;;;104.23;33.77;;;2.30;99.90;;;;;;5059075;28;20208;-71
2022/11/21 03:42:36;;;;;;;111.53;32.10;;;2.30;99.90;;;;;;5045225;28;20218;-71
2022/11/21 03:45:03;;;;;;;101.53;33.63;;;2.30;99.90;;;;;;5059929;28;20221;-72
2022/11/21 03:47:29;;;;;;;111.90;31.77;;;2.20;99.90;;;;;;5063079;28;20364;-71
2022/11/21 03:49:56;;;;;;;119.80;34.97;;;2.20;99.90;;;;;;5060739;28;20207;-71
2022/11/21 03:52:23;;;;;;;111.80;34.83;;;2.20;99.90;;;;;;5061864;28;20231;-72
2022/11/21 03:54:50;;;;;;;124.90;34.20;;;2.20;99.90;;;;;;5063400;28;20265;-71
2022/11/21 03:57:16;;;;;;;113.80;35.00;;;2.20;99.90;;;;;;5062961;28;20204;-71
2022/11/21 03:59:43;;;;;;;120.90;34.40;;;2.20;99.90;;;;;;5059936;28;20215;-70
2022/11/21 04:02:10;;;;;;;101.73;32.83;;;2.10;99.90;;;;;;5062878;28;20217;-71
2022/11/21 04:04:36;;;;;;;101.80;32.77;;;2.10;99.90;;;;;;5059739;28;20214;-71
2022/11/21 04:07:03;;;;;;;104.67;33.00;;;2.10;99.90;;;;;;5059036;28;20217;-71
2022/11/21 04:09:33;;;;;;;98.07;33.07;;;2.10;99.90;;;;;;5078721;28;20228;-70
2022/11/21 04:12:00;;;;;;;107.33;33.37;;;2.10;99.90;;;;;;5064448;28;20307;-71
2022/11/21 04:14:33;;;;;;;108.33;34.13;;;2.10;99.90;;;;;;5046286;28;20202;-70
2022/11/21 04:16:59;;;;;;;107.40;32.67;;;2.20;99.90;;;;;;5063774;28;20294;-71
2022/11/21 04:19:26;;;;;;;113.40;32.70;;;2.20;99.90;;;;;;5056966;28;20276;-71
2022/11/21 04:21:53;;;;;;;112.03;35.60;;;2.20;99.90;;;;;;5060412;28;20222;-71
2022/11/21 04:24:19;;;;;;;120.63;35.17;;;2.20;99.90;;;;;;5065473;28;20311;-71
2022/11/21 04:26:46;;;;;;;157.87;38.53;;;2.20;99.90;;;;;;5059899;28;20260;-71
2022/11/21 04:29:13;;;;;;;113.70;34.53;;;2.20;99.90;;;;;;5075194;28;20300;-71
2022/11/21 04:31:40;;;;;;;123.77;34.60;;;2.20;99.90;;;;;;5060151;28;20288;-71
2022/11/21 04:34:06;;;;;;;122.23;34.13;;;2.20;99.90;;;;;;5061837;28;20652;-71
2022/11/21 04:36:33;;;;;;;136.10;34.73;;;2.20;99.90;;;;;;5042969;28;20237;-73
2022/11/21 04:39:00;;;;;;;149.00;36.17;;;2.20;99.90;;;;;;5059495;28;20234;-72
2022/11/21 04:41:27;;;;;;;182.40;37.03;;;2.20;99.90;;;;;;5046569;28;20207;-71
2022/11/21 04:43:54;;;;;;;186.03;37.73;;;2.20;99.90;;;;;;5060630;28;20213;-72
2022/11/21 04:46:20;;;;;;;163.93;37.90;;;2.20;99.90;;;;;;5062520;28;20204;-71
2022/11/21 04:48:47;;;;;;;146.03;36.53;;;2.10;99.90;;;;;;5059509;28;20683;-71
2022/11/21 04:51:14;;;;;;;137.37;36.60;;;2.10;99.90;;;;;;5062084;28;20313;-71
2022/11/21 04:53:40;;;;;;;136.37;36.43;;;2.10;99.90;;;;;;5047528;28;20228;-71
2022/11/21 04:56:09;;;;;;;148.93;38.53;;;2.10;99.90;;;;;;5048841;28;20279;-71
2022/11/21 04:58:39;;;;;;;150.33;36.77;;;2.20;99.90;;;;;;5058174;28;20269;-72
2022/11/21 05:01:07;;;;;;;179.60;38.60;;;2.20;99.90;;;;;;5061789;28;20217;-71
2022/11/21 05:03:35;;;;;;;166.90;38.30;;;2.20;99.90;;;;;;5059112;28;20578;-71
2022/11/21 05:06:02;;;;;;;144.23;37.17;;;2.20;99.90;;;;;;5065485;28;20321;-72
2022/11/21 05:08:29;;;;;;;193.73;38.57;;;2.20;99.90;;;;;;5060032;28;20203;-71
2022/11/21 05:13:42;;;;;;;157.30;37.37;;;2.20;99.90;;;;;;5059768;28;20222;-70
2022/11/21 05:16:12;;;;;;;184.97;39.33;;;2.20;99.90;;;;;;5064465;28;20718;-71
2022/11/21 05:18:38;;;;;;;158.10;36.10;;;2.30;99.90;;;;;;5054986;28;20666;-72
2022/11/21 05:21:05;;;;;;;267.60;43.13;;;2.30;99.90;;;;;;5059795;28;20221;-71
2022/11/21 05:23:32;;;;;;;222.93;41.17;;;2.30;99.90;;;;;;5053817;28;20202;-71
2022/11/21 05:25:59;;;;;;;285.80;45.03;;;2.30;99.90;;;;;;5059182;28;20617;-71
2022/11/21 05:28:26;;;;;;;236.50;42.97;;;2.30;99.90;;;;;;5059678;28;20212;-70
2022/11/21 05:30:53;;;;;;;243.00;42.57;;;2.30;99.90;;;;;;5062205;28;20195;-71
2022/11/21 05:33:20;;;;;;;267.53;41.07;;;2.30;99.90;;;;;;5059094;28;20745;-71
2022/11/21 05:35:47;;;;;;;211.77;39.97;;;2.30;99.90;;;;;;5061732;28;20233;-71
2022/11/21 05:38:14;;;;;;;228.60;39.20;;;2.30;99.90;;;;;;5060822;28;20235;-70
2022/11/21 05:40:40;;;;;;;264.67;42.60;;;2.30;99.90;;;;;;5042501;28;20219;-71
2022/11/21 05:45:55;;;;;;;268.90;43.07;;;2.40;99.90;;;;;;5062610;28;20251;-71
2022/11/21 05:48:22;;;;;;;214.83;42.30;;;2.30;99.90;;;;;;5058403;28;20320;-71
2022/11/21 05:50:49;;;;;;;320.73;46.40;;;2.30;99.90;;;;;;5057624;28;20771;-71
2022/11/21 05:53:16;;;;;;;314.13;44.83;;;2.30;99.90;;;;;;5062974;28;20298;-72
2022/11/21 05:55:44;;;;;;;294.40;46.37;;;2.40;99.90;;;;;;5061637;28;20329;-70
2022/11/21 05:58:12;;;;;;;291.73;44.83;;;2.40;99.90;;;;;;5061987;28;20308;-71
2022/11/21 06:00:39;;;;;;;275.03;46.13;;;2.40;99.90;;;;;;5063747;28;20333;-70
2022/11/21 06:03:25;;;;;;;279.13;44.10;;;2.40;99.90;;;;;;5061469;28;20288;-71
2022/11/21 06:06:14;;;;;;;251.73;44.30;;;2.40;99.90;;;;;;5064468;28;20266;-71
2022/11/21 06:08:42;;;;;;;216.57;42.20;;;2.40;99.90;;;;;;5040383;28;20638;-71
2022/11/21 06:11:12;;;;;;;257.60;45.23;;;2.50;99.90;;;;;;5049276;28;20206;-71
2022/11/21 06:13:40;;;;;;;250.93;45.30;;;2.40;99.90;;;;;;5061073;28;20309;-71
2022/11/21 06:16:15;;;;;;;260.73;45.77;;;2.50;99.90;;;;;;5062619;28;20212;-71
2022/11/21 06:18:43;;;;;;;212.37;42.43;;;2.50;99.90;;;;;;5057647;28;20348;-71
2022/11/21 06:21:19;;;;;;;209.67;43.00;;;2.50;99.90;;;;;;5063385;28;20223;-71
2022/11/21 06:23:46;;;;;;;194.60;41.90;;;2.50;99.90;;;;;;5057623;28;20568;-70
2022/11/21 06:26:15;;;;;;;216.53;42.47;;;2.50;99.90;;;;;;5065041;28;20559;-71
2022/11/21 06:28:43;;;;;;;237.03;44.70;;;2.50;99.90;;;;;;5039516;28;20302;-71
2022/11/21 06:31:21;;;;;;;235.97;43.43;;;2.50;99.90;;;;;;5057918;28;20200;-71
2022/11/21 06:33:56;;;;;;;245.53;43.30;;;2.50;99.90;;;;;;5068287;28;20262;-70
2022/11/21 06:36:24;;;;;;;239.80;45.03;;;2.50;99.90;;;;;;5065168;28;20240;-71
2022/11/21 06:38:53;;;;;;;258.03;42.63;;;2.40;99.90;;;;;;5064465;28;20347;-71
2022/11/21 06:41:24;;;;;;;255.03;45.77;;;2.40;99.90;;;;;;5063792;28;20229;-73
2022/11/21 06:43:52;;;;;;;225.00;44.00;;;2.40;99.90;;;;;;5060117;28;20249;-71
2022/11/21 06:46:19;;;;;;;267.37;47.07;;;2.40;99.90;;;;;;5064694;28;20207;-72
2022/11/21 06:48:46;;;;;;;221.93;43.27;;;2.40;99.90;;;;;;5062816;28;20217;-70
2022/11/21 06:51:17;;;;;;;259.47;45.60;;;2.40;99.90;;;;;;5067671;28;20209;-71
2022/11/21 06:53:44;;;;;;;193.73;42.27;;;2.40;99.90;;;;;;5066075;28;20290;-70
2022/11/21 06:56:11;;;;;;;354.00;65.53;;;2.40;99.90;;;;;;5061868;28;20537;-70
2022/11/21 06:58:38;;;;;;;249.40;49.03;;;2.60;99.90;;;;;;5055485;28;20777;-70
2022/11/21 07:01:06;;;;;;;269.33;48.50;;;2.60;99.90;;;;;;5048507;28;20240;-70
2022/11/21 07:03:34;;;;;;;200.60;43.33;;;2.50;99.90;;;;;;5064495;28;20245;-70
2022/11/21 07:06:02;;;;;;;242.30;45.20;;;2.50;99.90;;;;;;5061979;28;20797;-70
2022/11/21 07:08:30;;;;;;;223.53;45.23;;;2.50;99.90;;;;;;5049287;28;20197;-70
2022/11/21 07:11:05;;;;;;;182.67;41.00;;;2.50;99.90;;;;;;5044539;28;20281;-70
2022/11/21 07:13:52;;;;;;;233.83;44.83;;;2.50;99.90;;;;;;5059313;28;20226;-69
2022/11/21 07:16:18;;;;;;;215.00;44.57;;;2.50;99.90;;;;;;5063103;28;20205;-71
2022/11/21 07:18:45;;;;;;;214.07;45.50;;;2.50;99.90;;;;;;5064588;28;20249;-71
2022/11/21 07:21:12;;;;;;;222.30;44.73;;;2.50;99.90;;;;;;5060222;28;20256;-70
2022/11/21 07:23:39;;;;;;;221.17;44.47;;;2.50;99.90;;;;;;5059671;28;20201;-70
2022/11/21 07:26:07;;;;;;;261.00;46.00;;;2.60;99.90;;;;;;5063012;28;20214;-70
2022/11/21 07:28:34;;;;;;;218.40;43.57;;;2.60;99.90;;;;;;5061595;28;20202;-71
2022/11/21 07:31:02;;;;;;;243.67;45.47;;;2.60;99.90;;;;;;5060547;28;20218;-70
2022/11/21 07:33:38;;;;;;;305.70;50.70;;;2.60;99.90;;;;;;5062121;28;20292;-69
2022/11/21 07:36:06;;;;;;;262.93;45.03;;;2.70;99.90;;;;;;5061076;28;20996;-70
2022/11/21 07:38:32;;;;;;;355.30;53.80;;;2.60;99.90;;;;;;5061602;28;20765;-70
2022/11/21 07:40:59;;;;;;;332.43;52.83;;;2.60;99.90;;;;;;5044146;28;20286;-70
2022/11/21 07:43:26;;;;;;;377.10;55.13;;;2.60;99.90;;;;;;5062359;28;20212;-70
2022/11/21 07:45:53;;;;;;;328.03;49.97;;;2.60;99.90;;;;;;5060389;28;20211;-70
2022/11/21 07:48:20;;;;;;;396.17;57.30;;;2.60;99.90;;;;;;5065719;28;20241;-70
2022/11/21 07:50:46;;;;;;;363.93;53.80;;;2.60;99.90;;;;;;5060590;28;20691;-71
2022/11/21 07:53:16;;;;;;;358.30;55.83;;;2.60;99.90;;;;;;5060920;28;20207;-70
2022/11/21 07:55:42;;;;;;;390.83;51.70;;;2.70;99.90;;;;;;5059945;28;20247;-70
2022/11/21 07:58:15;;;;;;;387.93;55.33;;;2.70;99.90;;;;;;5048041;28;20215;-70
2022/11/21 08:00:41;;;;;;;368.33;52.97;;;2.70;99.90;;;;;;5058500;28;20846;-70
2022/11/21 08:03:10;;;;;;;413.97;55.57;;;2.70;99.90;;;;;;5060114;28;20217;-71
2022/11/21 08:05:40;;;;;;;391.47;53.43;;;2.70;99.90;;;;;;5058935;28;20213;-70
2022/11/21 08:08:07;;;;;;;401.67;55.03;;;2.80;99.90;;;;;;5059699;28;20334;-71
2022/11/21 08:10:37;;;;;;;282.27;45.43;;;2.80;99.90;;;;;;5065295;28;20539;-70
2022/11/21 08:13:04;;;;;;;301.90;46.17;;;2.80;99.90;;;;;;5057837;28;20270;-69
2022/11/21 08:15:31;;;;;;;319.90;46.33;;;2.80;99.90;;;;;;5060684;28;20317;-71
2022/11/21 08:18:05;;;;;;;327.93;46.57;;;2.80;99.90;;;;;;5060008;28;20209;-70
2022/11/21 08:20:32;;;;;;;356.33;47.73;;;2.70;99.90;;;;;;5059647;28;20353;-70
2022/11/21 08:22:58;;;;;;;268.03;41.20;;;2.70;99.90;;;;;;5062117;28;20306;-71
2022/11/21 08:25:29;;;;;;;308.33;46.00;;;2.70;99.90;;;;;;5062533;28;20294;-70
2022/11/21 08:27:56;;;;;;;361.20;47.80;;;2.70;99.90;;;;;;5062501;28;20216;-70
2022/11/21 08:30:23;;;;;;;397.93;50.07;;;2.70;99.90;;;;;;5062614;28;20313;-69
2022/11/21 08:32:51;;;;;;;294.57;41.67;;;2.70;99.90;;;;;;5059547;28;20275;-70
2022/11/21 08:35:18;;;;;;;310.20;45.33;;;2.70;99.90;;;;;;5061200;28;20230;-69
2022/11/21 08:37:47;;;;;;;278.57;42.30;;;2.70;99.90;;;;;;5060286;28;20564;-72
2022/11/21 08:40:14;;;;;;;324.40;45.93;;;2.80;99.90;;;;;;5062067;28;20234;-70
2022/11/21 08:42:43;;;;;;;271.20;44.60;;;2.70;99.90;;;;;;5060993;28;20196;-69
2022/11/21 08:45:10;;;;;;;293.73;43.03;;;2.70;99.90;;;;;;5060229;28;20565;-71
2022/11/21 08:47:37;;;;;;;240.97;40.03;;;2.70;99.90;;;;;;5060731;28;20314;-70
2022/11/21 08:50:04;;;;;;;246.93;42.83;;;2.70;99.90;;;;;;5060667;28;20200;-69
2022/11/21 08:52:34;;;;;;;244.80;42.00;;;2.70;99.90;;;;;;5044112;28;20264;-69
2022/11/21 08:55:01;;;;;;;219.23;39.07;;;2.70;99.90;;;;;;5043114;28;20741;-70
2022/11/21 08:57:30;;;;;;;210.70;38.33;;;2.80;99.90;;;;;;5060374;28;20230;-70
2022/11/21 08:59:57;;;;;;;176.67;36.23;;;2.80;99.90;;;;;;5056633;28;20255;-68
2022/11/21 09:02:23;;;;;;;154.43;34.87;;;2.80;99.90;;;;;;5043142;28;20212;-70
2022/11/21 09:04:50;;;;;;;182.30;37.23;;;2.80;99.90;;;;;;5062256;28;20218;-71
2022/11/21 09:07:17;;;;;;;132.93;32.53;;;2.80;99.90;;;;;;5061653;28;20246;-70
2022/11/21 09:09:43;;;;;;;184.13;36.60;;;2.80;99.90;;;;;;5060890;28;20203;-71
2022/11/21 09:12:10;;;;;;;136.23;33.03;;;2.80;99.90;;;;;;5063378;28;20673;-71
2022/11/21 09:20:08;;;;;;;135.67;32.53;;;2.90;99.90;;;;;;5057827;28;20339;-70
2022/11/21 09:22:38;;;;;;;146.20;34.60;;;2.90;99.90;;;;;;5046364;28;20243;-71
2022/11/21 09:25:05;;;;;;;143.00;36.67;;;3.00;99.90;;;;;;5061656;28;20287;-71
2022/11/21 09:27:31;;;;;;;159.47;34.70;;;3.00;99.90;;;;;;5059161;28;20222;-70
2022/11/21 09:29:59;;;;;;;166.77;36.33;;;3.00;99.90;;;;;;5076226;28;20630;-70
2022/11/21 09:32:25;;;;;;;152.60;37.67;;;3.00;99.90;;;;;;5054920;28;20209;-70
2022/11/21 09:34:52;;;;;;;129.73;34.60;;;3.10;99.90;;;;;;5062249;28;20272;-70
2022/11/21 09:37:19;;;;;;;148.90;34.57;;;3.10;99.90;;;;;;5058173;28;20591;-69
2022/11/21 09:39:46;;;;;;;145.83;35.33;;;3.10;99.90;;;;;;5045360;28;20267;-71
2022/11/21 09:43:06;;;;;;;140.27;33.93;;;3.20;99.90;;;;;;5063382;28;20603;-72
2022/11/21 09:45:39;;;;;;;123.87;33.73;;;3.20;99.90;;;;;;5061938;28;20212;-70
2022/11/21 09:48:13;;;;;;;123.17;32.03;;;3.20;99.90;;;;;;5062856;28;20302;-70
2022/11/21 09:51:10;;;;;;;119.60;32.00;;;3.20;99.90;;;;;;5061867;28;20299;-70
2022/11/21 09:54:11;;;;;;;115.23;30.57;;;3.20;99.90;;;;;;5063592;28;20294;-70
2022/11/21 09:56:41;;;;;;;104.17;27.80;;;3.20;99.90;;;;;;5061807;28;20247;-70
2022/11/21 09:59:38;;;;;;;97.70;27.43;;;3.20;99.90;;;;;;5058527;28;20514;-71
2022/11/21 10:02:15;;;;;;;101.27;28.90;;;3.20;99.90;;;;;;5061922;28;20303;-70
2022/11/21 10:04:43;;;;;;;98.47;28.73;;;3.20;99.90;;;;;;5064508;28;20235;-70
2022/11/21 10:07:20;;;;;;;106.30;29.83;;;3.30;99.90;;;;;;5063327;28;20323;-70
2022/11/21 10:10:02;;;;;;;111.70;29.60;;;3.30;99.90;;;;;;5063367;28;20208;-70
2022/11/21 10:12:56;;;;;;;106.40;30.73;;;3.30;99.90;;;;;;5061610;28;20215;-70
2022/11/21 10:15:29;;;;;;;113.00;30.80;;;3.40;99.90;;;;;;5044077;28;20277;-70
2022/11/21 10:18:05;;;;;;;126.00;32.57;;;3.50;99.90;;;;;;5061115;28;20235;-70
2022/11/21 10:20:43;;;;;;;116.57;31.73;;;3.60;99.90;;;;;;5060985;28;20271;-71
2022/11/21 10:23:41;;;;;;;115.93;32.17;;;3.70;99.90;;;;;;5048168;28;20201;-71
2022/11/21 10:26:34;;;;;;;111.80;32.10;;;4.00;99.90;;;;;;5061921;28;20200;-71
2022/11/21 10:29:14;;;;;;;124.13;31.57;;;3.90;99.90;;;;;;5063890;28;20286;-69
2022/11/21 10:31:41;;;;;;;131.83;30.97;;;;;;;;;;5062285;28;20209;-69
2022/11/21 10:34:18;;;;;;;254.20;38.47;;;4.10;99.90;;;;;;5080859;28;20204;-71
2022/11/21 10:36:51;;;;;;;133.90;32.30;;;;;;;;;;5050840;28;20239;-70
2022/11/21 10:39:23;;;;;;;173.03;36.67;;;4.10;99.90;;;;;;5059664;28;20279;-70
2022/11/21 10:42:30;;;;;;;167.00;37.47;;;4.20;99.90;;;;;;5058778;28;20628;-69
2022/11/21 10:45:15;;;;;;;154.63;35.27;;;4.30;99.90;;;;;;5036052;28;20583;-70
2022/11/21 10:47:43;;;;;;;175.97;37.40;;;4.40;99.90;;;;;;5055538;28;20572;-69
2022/11/21 10:50:47;;;;;;;134.90;32.37;;;4.50;99.90;;;;;;5061963;28;20243;-70
2022/11/21 10:56:18;;;;;;;152.10;34.07;;;4.60;99.90;;;;;;5059865;28;20280;-69
2022/11/21 10:58:48;;;;;;;185.17;35.63;;;4.60;99.90;;;;;;5053833;28;20209;-70
2022/11/21 11:01:22;;;;;;;156.03;35.40;;;4.70;99.90;;;;;;5063053;28;20747;-69
2022/11/21 11:04:11;;;;;;;168.63;33.97;;;4.70;99.90;;;;;;5058469;28;20213;-70
2022/11/21 11:06:58;;;;;;;148.67;30.83;;;4.70;99.90;;;;;;5061897;28;20225;-70
2022/11/21 11:09:31;;;;;;;219.57;36.73;;;4.70;99.90;;;;;;5045548;28;20570;-69
2022/11/21 11:12:20;;;;;;;176.70;35.37;;;4.60;99.90;;;;;;5062668;28;20287;-70
2022/11/21 11:14:55;;;;;;;201.67;35.80;;;4.60;99.90;;;;;;5062027;28;20324;-69
2022/11/21 11:17:33;;;;;;;207.43;37.60;;;4.70;99.90;;;;;;5058252;28;20224;-70
2022/11/21 11:20:04;;;;;;;238.07;40.97;;;4.70;99.90;;;;;;5060871;28;20357;-70
2022/11/21 11:22:31;;;;;;;174.73;36.90;;;4.70;99.90;;;;;;5063732;28;20310;-70
2022/11/21 11:24:58;;;;;;;154.50;36.40;;;4.80;99.90;;;;;;5058601;28;20207;-69
2022/11/21 11:27:28;;;;;;;196.03;38.93;;;4.80;99.90;;;;;;5059859;28;20212;-70
2022/11/21 11:29:55;;;;;;;202.73;38.20;;;4.80;99.90;;;;;;5079662;28;20220;-69
2022/11/21 11:32:22;;;;;;;193.03;38.30;;;4.90;99.90;;;;;;5048791;28;20254;-69
2022/11/21 11:35:00;;;;;;;207.80;38.67;;;4.90;99.90;;;;;;5058604;28;20231;-70
2022/11/21 11:37:36;;;;;;;203.13;38.13;;;4.90;99.90;;;;;;5061188;28;20243;-69
2022/11/21 11:40:19;;;;;;;171.60;35.20;;;5.00;99.90;;;;;;5045035;28;20239;-69
2022/11/21 11:48:49;;;;;;;180.13;36.77;;;5.10;99.90;;;;;;5061620;28;20628;-70
2022/11/21 11:51:43;;;;;;;227.07;39.43;;;5.10;99.90;;;;;;5056459;28;20220;-72
2022/11/21 11:54:24;;;;;;;196.30;38.57;;;5.10;99.90;;;;;;5054492;28;20353;-72
2022/11/21 11:56:51;;;;;;;213.27;39.33;;;5.20;99.90;;;;;;5062488;28;20404;-70
2022/11/21 11:59:24;;;;;;;204.63;40.00;;;5.20;99.90;;;;;;5041826;28;20257;-69
2022/11/21 12:02:28;;;;;;;210.33;39.73;;;5.30;99.90;;;;;;5061808;28;20205;-69
2022/11/21 12:05:04;;;;;;;207.20;38.27;;;5.30;99.90;;;;;;5062493;28;20202;-69
2022/11/21 12:07:36;;;;;;;197.73;39.43;;;5.30;99.90;;;;;;5060887;28;20255;-70
2022/11/21 12:10:30;;;;;;;213.63;38.37;;;5.40;99.90;;;;;;5055694;28;20203;-70
2022/11/21 12:13:17;;;;;;;219.50;38.27;;;5.40;99.90;;;;;;5059614;28;20433;-70
2022/11/21 12:15:53;;;;;;;240.60;40.00;;;5.40;99.90;;;;;;5059914;28;20648;-70
2022/11/21 12:18:44;;;;;;;201.40;38.80;;;5.50;99.90;;;;;;5062236;28;20204;-70
2022/11/21 12:21:17;;;;;;;230.33;38.37;;;5.50;99.90;;;;;;5056831;28;20278;-69
2022/11/21 12:23:52;;;;;;;193.87;37.13;;;5.50;99.90;;;;;;5057894;28;20227;-69
2022/11/21 12:26:19;;;;;;;189.17;37.53;;;5.50;99.90;;;;;;5064133;28;20308;-70
2022/11/21 12:29:11;;;;;;;229.87;39.83;;;5.60;99.90;;;;;;5055757;28;20202;-70
2022/11/21 12:32:25;;;;;;;194.93;36.60;;;5.60;99.90;;;;;;5058685;28;20522;-68
2022/11/21 12:35:00;;;;;;;199.60;38.13;;;5.70;99.90;;;;;;5028532;28;20238;-69
2022/11/21 12:37:44;;;;;;;198.60;37.57;;;5.70;99.90;;;;;;5018670;28;20244;-70
2022/11/21 12:40:25;;;;;;;205.93;39.07;;;5.70;99.90;;;;;;5020633;28;21062;-69
2022/11/21 12:43:11;;;;;;;196.53;39.30;;;5.80;99.90;;;;;;5041330;28;20571;-69
2022/11/21 12:46:00;;;;;;;180.40;37.93;;;5.80;99.90;;;;;;5041092;28;20276;-70
2022/11/21 12:55:08;;;;;;;171.87;38.33;;;6.00;99.90;;;;;;5037913;28;20532;-69
2022/11/21 12:57:43;;;;;;;164.83;36.93;;;6.00;99.90;;;;;;5038225;28;20198;-69
2022/11/21 13:00:10;;;;;;;174.83;37.87;;;6.10;99.90;;;;;;5039215;28;20330;-69
2022/11/21 13:03:02;;;;;;;177.10;39.00;;;6.10;99.90;;;;;;5040297;28;20211;-69
2022/11/21 13:05:32;;;;;;;178.17;38.83;;;6.10;99.90;;;;;;5039618;28;20204;-68
2022/11/21 13:08:04;;;;;;;165.20;36.83;;;6.20;99.90;;;;;;5039060;28;20210;-69
2022/11/21 13:10:31;;;;;;;144.40;36.03;;;6.10;99.90;;;;;;5043840;28;20200;-70
2022/11/21 13:13:13;;;;;;;135.10;35.57;;;6.10;99.90;;;;;;5057386;28;20771;-69
2022/11/21 13:15:50;;;;;;;122.13;35.57;;;6.20;99.90;;;;;;5038330;28;20244;-69